Main page
METAR-TAF:

METAR-TAF

Airports :

Chania, Crete, Greece

Chania International Airport

latitude: 35-29N, longitude: 024-07E, elevation: 146 m

Current weather observation

The report was made 34 minutes ago, at 09:20 UTC
Wind 8 kt from the Northwest
Temperature 23°C
Humidity 53%
Pressure 1020 hPa
Visibility 10 km or more
Few clouds at a height of 2500 ft

METAR: LGSA 190920Z 31008KT 9999 FEW025 23/13 Q1020

Time: 12:54 (09:54 UTC)

Forecast

The report was made 4 hours and 54 minutes ago, at 05:00 UTC
Forecast valid from 19 at 06 UTC to 20 at 06 UTC
Wind 5 kt from variable directions
Visibility: 7000 m
Few clouds at a height of 800 ft
Becoming
from 19 at 06 UTC to 19 at 08 UTC
Wind 15 kt from the North/Northwest

TAF: LGSA 190500Z 1906/2006 VRB05KT 7000 FEW008 BECMG 1906/1908 33015KT

Weather observations and forecasts of more than 4000 airports (METAR and TAF reports).

The available stations are represented by yellow and red dots on the map.

Hover mouse over dot to see the name of the station.

Then click to see weather observations and forecasts.

To change the map : click on the green buttons with a black cross to zoom in, on the green button with a dash to zoom out, or on the green arrows for adjacent maps.


METAR-TAF: